Lawrence, KS (66049)

9:37 PM CDT on March 27, 2015 (GMT -0500)
Andover Street | | Change Station
CLOSE
Current Station
Personal Weather Station
Location: Lawrence, KS
Elevation: 1007 ft
Nearby Weather Stations

Elev 1007 ft 38.97 °N, 95.29 °W | Updated 2 minutes ago

Overcast
Overcast
40.5 °F
Feels Like 40 °F
N
2.2
Wind Variable Wind from ESE

Today
High -- | Low -- °F
--% Chance of Precip.
Yesterday
High -- | Low -- °F
Precip. -- in
7:13 AM 7:39 PM
First Quarter, 58% visible
Pressure 30.17 in
Visibility 10.0 miles
Clouds Overcast 7000 ft
Windchill 40 °F
Dew Point 23 °F
Humidity 50%
Rainfall 0.00 in
Snow Depth Not available.
UV 0 out of 12
Pollen 6.70 out of 12
Air Quality Not available.
Flu Activity Not available.
METAR KLWC 280152Z AUTO 07004KT 10SM OVC070 04/M05 A3015 RMK AO2 SLP216 T00441050

More Conditions Fewer Conditions

Pressure 30.17 in
Visibility 10.0 miles
Clouds Overcast 7000 ft
Windchill 40 °F
Dew Point 23 °F
Humidity 50%
Rainfall 0.00 in
Snow Depth Not available.
UV 0 out of 12
Pollen 6.70 out of 12
Air Quality Not available.
Flu Activity Not available.
METAR KLWC 280152Z AUTO 07004KT 10SM OVC070 04/M05 A3015 RMK AO2 SLP216 T00441050

More Conditions Fewer Conditions

10-Day Weather Forecast

Almanac

Astronomy

Mar. 27, 2015 Rise Set
Actual Time
Civil Twilight
Nautical Twilight
Astronomical Twilight
Moon
Length of Visible Light
Length of Day
Tomorrow will be .
, % of the Moon is Illuminated

Today's Extremes

State Highs State Lows

Community

WunderPhotos

Upload Photos

1,808,915 photos uploaded!

WunderBlogs® & News

Nearby

Air Quality

  Air Quality AQ Index Pollutant
Not available.

Snow Depth

Station Depth Elevation

Earthquake Activity

City Distance Mag. Time & Date
Minimum magnitude displayed is 2.5.

Coastal Water Temperatures

Place Temperature

Stations

Nearby Weather Stations

Station Location Temp. Windchill Dew Point Humidity Wind Precip. Elev Updated Type